createdAt,value
2022-08-01T00:00:10.639Z,979.52
2022-08-01T00:01:10.628Z,979.54
2022-08-01T00:02:10.729Z,979.48
2022-08-01T00:03:10.679Z,979.52
2022-08-01T00:04:10.781Z,979.44
2022-08-01T00:05:10.613Z,979.51
2022-08-01T00:06:10.584Z,979.49
2022-08-01T00:07:10.614Z,979.47
2022-08-01T00:08:10.551Z,979.46
2022-08-01T00:09:10.686Z,979.42
2022-08-01T00:10:10.533Z,979.54
2022-08-01T00:11:10.494Z,979.52
2022-08-01T00:12:10.849Z,979.50
2022-08-01T00:13:10.654Z,979.48
2022-08-01T00:14:10.449Z,979.50
2022-08-01T00:15:10.498Z,979.49
2022-08-01T00:16:10.458Z,979.46
2022-08-01T00:17:10.428Z,979.46
2022-08-01T00:18:10.449Z,979.43
2022-08-01T00:19:10.389Z,979.46
2022-08-01T00:20:10.448Z,979.43
2022-08-01T00:21:10.430Z,979.41
2022-08-01T00:22:10.437Z,979.43
2022-08-01T00:23:10.329Z,979.40
2022-08-01T00:24:14.442Z,979.41
2022-08-01T00:25:10.314Z,979.37
2022-08-01T00:26:10.303Z,979.37
2022-08-01T00:27:10.364Z,979.35
2022-08-01T00:28:10.283Z,979.38
2022-08-01T00:29:13.244Z,979.36
2022-08-01T00:30:15.342Z,979.40
2022-08-01T00:31:10.304Z,979.38
2022-08-01T00:32:10.442Z,979.38
2022-08-01T00:33:10.383Z,979.31
2022-08-01T00:34:10.448Z,979.31
2022-08-01T00:35:10.312Z,979.28
2022-08-01T00:36:10.177Z,979.27
2022-08-01T00:37:10.277Z,979.17
2022-08-01T00:38:10.149Z,979.24
2022-08-01T00:39:10.180Z,979.15
2022-08-01T00:40:10.122Z,979.23
2022-08-01T00:41:10.088Z,979.19
2022-08-01T00:42:10.128Z,979.19
2022-08-01T00:43:10.078Z,979.17
2022-08-01T00:44:10.132Z,979.22
2022-08-01T00:45:10.375Z,979.23
2022-08-01T00:46:10.132Z,979.22
2022-08-01T00:47:10.043Z,979.20
2022-08-01T00:48:10.123Z,979.20
2022-08-01T00:49:10.418Z,979.17
2022-08-01T00:50:09.973Z,979.24
2022-08-01T00:51:10.012Z,979.22
2022-08-01T00:52:10.125Z,979.23
2022-08-01T00:53:09.918Z,979.21
2022-08-01T00:54:10.128Z,979.18
2022-08-01T00:55:09.993Z,979.17
2022-08-01T00:56:09.898Z,979.15
2022-08-01T00:57:10.871Z,979.17
2022-08-01T00:58:09.922Z,979.11
2022-08-01T00:59:09.968Z,979.12
2022-08-01T01:00:09.837Z,979.10
2022-08-01T01:01:09.998Z,979.06
2022-08-01T01:02:14.668Z,979.07
2022-08-01T01:03:09.842Z,979.09
2022-08-01T01:04:09.865Z,979.07
2022-08-01T01:05:09.842Z,979.07
2022-08-01T01:06:09.754Z,979.05
2022-08-01T01:07:09.753Z,979.06
2022-08-01T01:08:09.728Z,979.06
2022-08-01T01:09:09.714Z,979.09
2022-08-01T01:10:09.704Z,979.10
2022-08-01T01:11:09.743Z,979.07
2022-08-01T01:12:09.895Z,979.08
2022-08-01T01:13:09.669Z,979.04
2022-08-01T01:14:09.682Z,979.07
2022-08-01T01:15:09.658Z,979.06
2022-08-01T01:16:09.819Z,979.02
2022-08-01T01:17:09.737Z,979.00
2022-08-01T01:18:09.578Z,979.05
2022-08-01T01:19:09.668Z,979.03
2022-08-01T01:20:09.569Z,978.99
2022-08-01T01:21:09.649Z,979.03
2022-08-01T01:22:09.880Z,979.03
2022-08-01T01:23:09.658Z,979.01
2022-08-01T01:24:09.533Z,979.05
2022-08-01T01:25:09.663Z,979.00
2022-08-01T01:26:09.483Z,978.95
2022-08-01T01:27:09.663Z,978.98
2022-08-01T01:28:09.563Z,979.06
2022-08-01T01:29:09.642Z,979.01
2022-08-01T01:30:09.482Z,978.97
2022-08-01T01:31:11.037Z,978.97
2022-08-01T01:32:09.482Z,978.94
2022-08-01T01:33:09.656Z,978.98
2022-08-01T01:34:09.577Z,979.02
2022-08-01T01:35:09.378Z,978.93
2022-08-01T01:36:11.576Z,978.96
2022-08-01T01:37:09.338Z,978.93
2022-08-01T01:38:09.329Z,978.95
2022-08-01T01:39:09.349Z,978.85
2022-08-01T01:40:09.827Z,978.88
2022-08-01T01:41:09.399Z,978.90
2022-08-01T01:42:09.497Z,978.81
2022-08-01T01:43:09.307Z,978.82
2022-08-01T01:44:09.504Z,978.81
2022-08-01T01:45:09.355Z,978.80
2022-08-01T01:46:09.224Z,978.80
2022-08-01T01:47:09.665Z,978.75
2022-08-01T01:48:09.244Z,978.72
2022-08-01T01:49:09.386Z,978.73
2022-08-01T01:50:09.184Z,978.73
2022-08-01T01:51:09.182Z,978.73
2022-08-01T01:52:09.453Z,978.65
2022-08-01T01:53:15.268Z,978.63
2022-08-01T01:54:09.272Z,978.70
2022-08-01T01:55:09.361Z,978.58
2022-08-01T01:56:09.186Z,978.65
2022-08-01T01:57:09.077Z,978.64
2022-08-01T01:58:09.197Z,978.61
2022-08-01T01:59:09.369Z,978.59
2022-08-01T02:00:09.111Z,978.62
2022-08-01T02:01:14.740Z,978.58
2022-08-01T02:02:09.317Z,978.57
2022-08-01T02:03:09.140Z,978.51
2022-08-01T02:04:08.988Z,978.53
2022-08-01T02:05:09.082Z,978.50
2022-08-01T02:06:09.162Z,978.47
2022-08-01T02:07:08.924Z,978.47
2022-08-01T02:08:08.904Z,978.49
2022-08-01T02:09:09.030Z,978.46
2022-08-01T02:10:09.173Z,978.38
2022-08-01T02:11:08.959Z,978.39
2022-08-01T02:12:09.251Z,978.39
2022-08-01T02:13:08.835Z,978.38
2022-08-01T02:14:08.869Z,978.45
2022-08-01T02:15:08.828Z,978.42
2022-08-01T02:16:08.789Z,978.41
2022-08-01T02:17:08.859Z,978.41
2022-08-01T02:18:08.849Z,978.44
2022-08-01T02:19:09.028Z,978.37
2022-08-01T02:20:08.779Z,978.43
2022-08-01T02:21:08.739Z,978.40
2022-08-01T02:22:09.004Z,978.42
2022-08-01T02:23:08.698Z,978.34
2022-08-01T02:24:08.853Z,978.34
2022-08-01T02:25:08.719Z,978.36
2022-08-01T02:26:10.736Z,978.32
2022-08-01T02:27:08.694Z,978.30
2022-08-01T02:28:08.683Z,978.27
2022-08-01T02:29:08.688Z,978.31
2022-08-01T02:30:08.864Z,978.30
2022-08-01T02:31:08.683Z,978.30
2022-08-01T02:32:08.780Z,978.30
2022-08-01T02:33:15.540Z,978.30
2022-08-01T02:34:08.588Z,978.28
2022-08-01T02:35:08.767Z,978.32
2022-08-01T02:36:31.797Z,978.33
2022-08-01T02:37:08.528Z,978.32
2022-08-01T02:38:08.529Z,978.29
2022-08-01T02:39:09.032Z,978.27
2022-08-01T02:40:08.539Z,978.30
2022-08-01T02:41:08.689Z,978.28
2022-08-01T02:42:08.950Z,978.30
2022-08-01T02:43:08.439Z,978.26
2022-08-01T02:44:08.543Z,978.22
2022-08-01T02:45:08.505Z,978.26
2022-08-01T02:46:08.534Z,978.27
2022-08-01T02:47:08.385Z,978.22
2022-08-01T02:48:08.524Z,978.25
2022-08-01T02:49:08.474Z,978.31
2022-08-01T02:50:08.604Z,978.27
2022-08-01T02:51:08.354Z,978.32
2022-08-01T02:52:08.929Z,978.29
2022-08-01T02:53:08.372Z,978.29
2022-08-01T02:54:08.559Z,978.31
2022-08-01T02:55:08.379Z,978.29
2022-08-01T02:56:08.349Z,978.29
2022-08-01T02:57:08.248Z,978.22
2022-08-01T02:58:08.208Z,978.33
2022-08-01T02:59:08.389Z,978.33
2022-08-01T03:00:08.194Z,978.35
2022-08-01T03:01:08.434Z,978.29
2022-08-01T03:02:08.863Z,978.31
2022-08-01T03:03:08.369Z,978.33
2022-08-01T03:04:08.209Z,978.29
2022-08-01T03:05:08.402Z,978.31
2022-08-01T03:06:08.234Z,978.27
2022-08-01T03:07:08.224Z,978.33
2022-08-01T03:08:14.602Z,978.26
2022-08-01T03:09:08.385Z,978.31
2022-08-01T03:10:08.054Z,978.32
2022-08-01T03:11:08.076Z,978.31
2022-08-01T03:12:08.654Z,978.33
2022-08-01T03:13:08.085Z,978.26
2022-08-01T03:14:07.994Z,978.31
2022-08-01T03:15:08.069Z,978.31
2022-08-01T03:16:08.229Z,978.28
2022-08-01T03:17:08.050Z,978.30
2022-08-01T03:18:07.939Z,978.35
2022-08-01T03:19:08.015Z,978.38
2022-08-01T03:20:07.927Z,978.37
2022-08-01T03:21:07.900Z,978.31
2022-08-01T03:22:08.198Z,978.35
2022-08-01T03:23:07.860Z,978.35
2022-08-01T03:24:07.913Z,978.35
2022-08-01T03:25:07.935Z,978.30
2022-08-01T03:26:07.925Z,978.36
2022-08-01T03:27:07.862Z,978.38
2022-08-01T03:28:07.895Z,978.38
2022-08-01T03:29:08.053Z,978.39
2022-08-01T03:30:07.885Z,978.35
2022-08-01T03:31:07.824Z,978.36
2022-08-01T03:32:08.328Z,978.36
2022-08-01T03:33:07.766Z,978.39
2022-08-01T03:34:07.739Z,978.35
2022-08-01T03:35:07.724Z,978.35
2022-08-01T03:36:07.899Z,978.37
2022-08-01T03:37:07.820Z,978.39
2022-08-01T03:38:16.512Z,978.37
2022-08-01T03:39:07.729Z,978.32
2022-08-01T03:40:07.889Z,978.33
2022-08-01T03:41:07.720Z,978.36
2022-08-01T03:42:08.153Z,978.36
2022-08-01T03:43:07.789Z,978.39
2022-08-01T03:44:07.590Z,978.38
2022-08-01T03:45:07.720Z,978.36
2022-08-01T03:46:07.585Z,978.34
2022-08-01T03:47:07.564Z,978.35
2022-08-01T03:48:07.647Z,978.36
2022-08-01T03:49:07.596Z,978.39
2022-08-01T03:50:12.223Z,978.37
2022-08-01T03:51:07.498Z,978.40
2022-08-01T03:52:07.887Z,978.38
2022-08-01T03:53:07.455Z,978.41
2022-08-01T03:54:07.634Z,978.42
2022-08-01T03:55:07.444Z,978.41
2022-08-01T03:56:07.580Z,978.42
2022-08-01T03:57:07.416Z,978.42
2022-08-01T03:58:09.837Z,978.42
2022-08-01T03:59:07.420Z,978.41
2022-08-01T04:00:07.639Z,978.39
2022-08-01T04:01:07.469Z,978.39
2022-08-01T04:02:07.959Z,978.39
2022-08-01T04:03:07.402Z,978.43
2022-08-01T04:04:07.311Z,978.44
2022-08-01T04:05:07.491Z,978.48
2022-08-01T04:06:07.316Z,978.42
2022-08-01T04:07:07.434Z,978.44
2022-08-01T04:08:07.275Z,978.53
2022-08-01T04:09:12.801Z,978.49
2022-08-01T04:10:07.244Z,978.50
2022-08-01T04:11:07.304Z,978.53
2022-08-01T04:12:12.356Z,978.53
2022-08-01T04:13:07.405Z,978.56
2022-08-01T04:14:09.259Z,978.53
2022-08-01T04:15:07.164Z,978.53
2022-08-01T04:16:07.163Z,978.55
2022-08-01T04:17:07.224Z,978.54
2022-08-01T04:18:07.251Z,978.50
2022-08-01T04:19:07.418Z,978.58
2022-08-01T04:20:07.249Z,978.55
2022-08-01T04:21:07.090Z,978.61
2022-08-01T04:22:07.360Z,978.59
2022-08-01T04:23:07.120Z,978.57
2022-08-01T04:24:07.039Z,978.58
2022-08-01T04:25:07.091Z,978.53
2022-08-01T04:26:07.240Z,978.58
2022-08-01T04:27:07.106Z,978.58
2022-08-01T04:28:06.996Z,978.60
2022-08-01T04:29:07.175Z,978.61
2022-08-01T04:30:07.255Z,978.58
2022-08-01T04:31:07.087Z,978.54
2022-08-01T04:32:07.345Z,978.54
2022-08-01T04:33:06.934Z,978.48
2022-08-01T04:34:06.944Z,978.49
2022-08-01T04:35:22.948Z,978.52
2022-08-01T04:36:06.926Z,978.54
2022-08-01T04:37:06.869Z,978.59
2022-08-01T04:38:06.950Z,978.55
2022-08-01T04:39:07.113Z,978.54
2022-08-01T04:40:06.919Z,978.56
2022-08-01T04:41:09.126Z,978.57
2022-08-01T04:42:07.371Z,978.56
2022-08-01T04:43:06.791Z,978.61
2022-08-01T04:44:06.761Z,978.57
2022-08-01T04:45:06.790Z,978.61
2022-08-01T04:46:06.729Z,978.61
2022-08-01T04:47:06.884Z,978.64
2022-08-01T04:48:06.936Z,978.64
2022-08-01T04:49:06.816Z,978.65
2022-08-01T04:50:06.945Z,978.68
2022-08-01T04:51:06.775Z,978.72
2022-08-01T04:52:07.184Z,978.70
2022-08-01T04:53:06.845Z,978.69
2022-08-01T04:54:06.625Z,978.71
2022-08-01T04:55:06.764Z,978.75
2022-08-01T04:56:06.586Z,978.74
2022-08-01T04:57:06.601Z,978.70
2022-08-01T04:58:06.630Z,978.75
2022-08-01T04:59:06.859Z,978.79
2022-08-01T05:00:06.619Z,978.78
2022-08-01T05:01:06.924Z,978.74
2022-08-01T05:02:06.969Z,978.80
2022-08-01T05:03:06.780Z,978.78
2022-08-01T05:04:06.670Z,978.76
2022-08-01T05:05:06.511Z,978.77
2022-08-01T05:06:06.599Z,978.82
2022-08-01T05:07:06.447Z,978.80
2022-08-01T05:08:06.623Z,978.85
2022-08-01T05:09:06.445Z,978.84
2022-08-01T05:10:06.945Z,978.84
2022-08-01T05:11:06.454Z,978.85
2022-08-01T05:12:07.059Z,978.83
2022-08-01T05:13:06.376Z,978.87
2022-08-01T05:14:06.346Z,978.89
2022-08-01T05:15:07.228Z,978.85
2022-08-01T05:16:06.395Z,978.87
2022-08-01T05:17:06.516Z,978.88
2022-08-01T05:18:07.791Z,978.87
2022-08-01T05:19:06.291Z,978.89
2022-08-01T05:20:06.280Z,978.89
2022-08-01T05:21:06.289Z,978.91
2022-08-01T05:22:06.570Z,978.86
2022-08-01T05:23:06.479Z,978.83
2022-08-01T05:24:06.232Z,978.87
2022-08-01T05:25:06.259Z,978.85
2022-08-01T05:26:06.189Z,978.84
2022-08-01T05:27:06.180Z,978.77
2022-08-01T05:28:06.294Z,978.87
2022-08-01T05:29:06.184Z,978.84
2022-08-01T05:30:06.285Z,978.83
2022-08-01T05:31:06.247Z,978.89
2022-08-01T05:32:06.607Z,978.89
2022-08-01T05:33:06.124Z,978.89
2022-08-01T05:34:06.084Z,978.91
2022-08-01T05:35:06.145Z,978.87
2022-08-01T05:36:06.065Z,978.89
2022-08-01T05:37:06.204Z,978.93
2022-08-01T05:38:06.309Z,979.00
2022-08-01T05:39:06.139Z,978.94
2022-08-01T05:40:06.296Z,978.93
2022-08-01T05:41:06.129Z,978.91
2022-08-01T05:42:06.300Z,978.99
2022-08-01T05:43:06.210Z,978.95
2022-08-01T05:44:05.973Z,978.98
2022-08-01T05:45:06.133Z,979.00
2022-08-01T05:46:05.959Z,979.08
2022-08-01T05:47:05.954Z,979.07
2022-08-01T05:48:05.976Z,979.10
2022-08-01T05:49:06.300Z,979.06
2022-08-01T05:50:06.014Z,979.08
2022-08-01T05:51:06.136Z,979.13
2022-08-01T05:52:06.185Z,979.16
2022-08-01T05:53:06.145Z,979.13
2022-08-01T05:54:06.060Z,979.14
2022-08-01T05:55:05.805Z,979.14
2022-08-01T05:56:05.977Z,979.12
2022-08-01T05:57:05.819Z,979.11
2022-08-01T05:58:05.773Z,979.12
2022-08-01T05:59:05.890Z,979.11
2022-08-01T06:00:05.749Z,979.07
2022-08-01T06:01:05.815Z,979.14
2022-08-01T06:02:06.347Z,979.15
2022-08-01T06:03:05.812Z,979.16
2022-08-01T06:04:05.710Z,979.18
2022-08-01T06:05:09.061Z,979.15
2022-08-01T06:06:05.729Z,979.12
2022-08-01T06:07:05.634Z,979.13
2022-08-01T06:08:05.634Z,979.21
2022-08-01T06:09:05.825Z,979.23
2022-08-01T06:10:05.653Z,979.21
2022-08-01T06:11:05.807Z,979.21
2022-08-01T06:12:05.903Z,979.24
2022-08-01T06:13:05.556Z,979.24
2022-08-01T06:14:05.748Z,979.24
2022-08-01T06:15:05.527Z,979.26
2022-08-01T06:16:05.645Z,979.21
2022-08-01T06:17:05.510Z,979.19
2022-08-01T06:18:05.509Z,979.20
2022-08-01T06:19:05.479Z,979.23
2022-08-01T06:20:05.529Z,979.22
2022-08-01T06:21:05.596Z,979.28
2022-08-01T06:22:05.897Z,979.27
2022-08-01T06:23:31.204Z,979.31
2022-08-01T06:24:05.411Z,979.25
2022-08-01T06:25:05.508Z,979.34
2022-08-01T06:26:05.390Z,979.25
2022-08-01T06:27:05.565Z,979.32
2022-08-01T06:28:05.656Z,979.29
2022-08-01T06:29:05.344Z,979.34
2022-08-01T06:30:05.354Z,979.36
2022-08-01T06:31:05.324Z,979.39
2022-08-01T06:32:05.612Z,979.35
2022-08-01T06:33:05.274Z,979.36
2022-08-01T06:34:05.384Z,979.40
2022-08-01T06:35:05.265Z,979.37
2022-08-01T06:36:05.416Z,979.38
2022-08-01T06:37:05.892Z,979.41
2022-08-01T06:38:05.350Z,979.44
2022-08-01T06:39:05.502Z,979.45
2022-08-01T06:40:05.331Z,979.42
2022-08-01T06:41:05.190Z,979.41
2022-08-01T06:42:05.513Z,979.44
2022-08-01T06:43:05.239Z,979.42
2022-08-01T06:44:05.159Z,979.42
2022-08-01T06:45:05.183Z,979.46
2022-08-01T06:46:05.337Z,979.53
2022-08-01T06:47:05.187Z,979.48
2022-08-01T06:48:05.334Z,979.50
2022-08-01T06:49:05.601Z,979.50
2022-08-01T06:50:05.333Z,979.52
2022-08-01T06:51:05.173Z,979.48
2022-08-01T06:52:05.409Z,979.52
2022-08-01T06:53:05.184Z,979.55
2022-08-01T06:54:05.004Z,979.53
2022-08-01T06:55:05.245Z,979.49
2022-08-01T06:56:05.350Z,979.52
2022-08-01T06:57:05.199Z,979.52
2022-08-01T06:58:05.029Z,979.52
2022-08-01T06:59:04.949Z,979.55
2022-08-01T07:00:05.030Z,979.57
2022-08-01T07:01:05.312Z,979.56
2022-08-01T07:02:05.503Z,979.60
2022-08-01T07:03:04.959Z,979.57
2022-08-01T07:04:04.998Z,979.60
2022-08-01T07:05:04.858Z,979.59
2022-08-01T07:06:05.015Z,979.62
2022-08-01T07:07:04.865Z,979.62
2022-08-01T07:08:04.825Z,979.60
2022-08-01T07:09:09.699Z,979.66
2022-08-01T07:10:04.794Z,979.65
2022-08-01T07:11:04.854Z,979.64
2022-08-01T07:12:05.137Z,979.66
2022-08-01T07:13:05.674Z,979.67
2022-08-01T07:14:04.731Z,979.68
2022-08-01T07:15:04.798Z,979.70
2022-08-01T07:16:04.998Z,979.70
2022-08-01T07:17:04.875Z,979.76
2022-08-01T07:18:04.682Z,979.76
2022-08-01T07:19:04.658Z,979.73
2022-08-01T07:20:04.691Z,979.75
2022-08-01T07:21:05.085Z,979.73
2022-08-01T07:22:04.865Z,979.76
2022-08-01T07:23:04.679Z,979.80
2022-08-01T07:24:11.342Z,979.76
2022-08-01T07:25:04.605Z,979.81
2022-08-01T07:26:04.735Z,979.81
2022-08-01T07:27:24.059Z,979.75
2022-08-01T07:28:04.553Z,979.83
2022-08-01T07:29:04.609Z,979.75
2022-08-01T07:30:04.536Z,979.80
2022-08-01T07:31:04.534Z,979.90
2022-08-01T07:32:04.882Z,979.93
2022-08-01T07:33:04.493Z,979.71
2022-08-01T07:34:04.712Z,979.79
2022-08-01T07:35:04.553Z,979.79
2022-08-01T07:36:04.429Z,979.90
2022-08-01T07:37:04.549Z,979.92
2022-08-01T07:38:04.429Z,979.82
2022-08-01T07:39:04.530Z,979.87
2022-08-01T07:40:04.460Z,979.91
2022-08-01T07:41:04.599Z,979.85
2022-08-01T07:42:07.363Z,979.91
2022-08-01T07:43:04.571Z,979.91
2022-08-01T07:44:04.856Z,979.94
2022-08-01T07:45:04.534Z,979.92
2022-08-01T07:46:04.375Z,979.90
2022-08-01T07:47:04.392Z,979.96
2022-08-01T07:48:04.424Z,979.89
2022-08-01T07:49:04.577Z,979.93
2022-08-01T07:50:04.396Z,979.92
2022-08-01T07:51:04.544Z,979.98
2022-08-01T07:52:04.657Z,979.89
2022-08-01T07:53:04.239Z,979.87
2022-08-01T07:54:04.430Z,979.84
2022-08-01T07:55:04.209Z,979.97
2022-08-01T07:56:04.268Z,979.95
2022-08-01T07:57:04.270Z,979.88
2022-08-01T07:58:04.372Z,979.98
2022-08-01T07:59:04.225Z,980.01
2022-08-01T08:00:04.359Z,979.94
2022-08-01T08:01:04.209Z,979.90
2022-08-01T08:02:04.692Z,979.94
2022-08-01T08:03:04.215Z,980.01
2022-08-01T08:04:04.377Z,980.05
2022-08-01T08:05:04.230Z,979.98
2022-08-01T08:06:04.064Z,979.98
2022-08-01T08:07:04.709Z,979.97
2022-08-01T08:08:04.124Z,980.01
2022-08-01T08:09:04.241Z,979.97
2022-08-01T08:10:04.044Z,979.97
2022-08-01T08:11:04.240Z,979.98
2022-08-01T08:12:04.492Z,980.00
2022-08-01T08:13:03.971Z,979.99
2022-08-01T08:14:04.128Z,980.07
2022-08-01T08:15:04.198Z,980.06
2022-08-01T08:16:04.059Z,979.99
2022-08-01T08:17:03.920Z,979.99
2022-08-01T08:18:04.049Z,980.09
2022-08-01T08:19:03.888Z,980.06
2022-08-01T08:20:04.123Z,980.04
2022-08-01T08:21:06.762Z,980.06
2022-08-01T08:22:04.262Z,980.10
2022-08-01T08:23:03.853Z,980.10
2022-08-01T08:24:04.043Z,980.12
2022-08-01T08:25:03.914Z,980.14
2022-08-01T08:26:03.794Z,980.08
2022-08-01T08:27:03.954Z,980.05
2022-08-01T08:28:03.779Z,980.11
2022-08-01T08:29:03.867Z,980.08
2022-08-01T08:30:03.758Z,980.10
2022-08-01T08:31:03.899Z,980.07
2022-08-01T08:32:03.858Z,980.05
2022-08-01T08:33:03.718Z,980.09
2022-08-01T08:34:03.729Z,980.09
2022-08-01T08:35:03.770Z,980.09
2022-08-01T08:36:03.683Z,980.08
2022-08-01T08:37:03.664Z,980.14
2022-08-01T08:38:03.693Z,980.12
2022-08-01T08:39:03.624Z,980.19
2022-08-01T08:40:03.617Z,980.19
2022-08-01T08:41:03.694Z,980.12
2022-08-01T08:42:04.225Z,980.14
2022-08-01T08:43:03.585Z,980.17
2022-08-01T08:44:03.574Z,980.21
2022-08-01T08:45:03.565Z,980.17
2022-08-01T08:46:03.758Z,980.13
2022-08-01T08:47:03.576Z,980.21
2022-08-01T08:48:03.578Z,980.21
2022-08-01T08:49:03.642Z,980.20
2022-08-01T08:50:03.749Z,980.20
2022-08-01T08:51:03.575Z,980.23
2022-08-01T08:52:03.737Z,980.22
2022-08-01T08:53:03.558Z,980.29
2022-08-01T08:54:03.499Z,980.26
2022-08-01T08:55:03.574Z,980.25
2022-08-01T08:56:03.414Z,980.27
2022-08-01T08:57:03.574Z,980.25
2022-08-01T08:58:03.404Z,980.21
2022-08-01T08:59:03.374Z,980.21
2022-08-01T09:00:03.434Z,980.24
2022-08-01T09:01:03.563Z,980.29
2022-08-01T09:02:03.403Z,980.28
2022-08-01T09:03:03.445Z,980.29
2022-08-01T09:04:03.419Z,980.29
2022-08-01T09:05:03.319Z,980.34
2022-08-01T09:06:03.369Z,980.31
2022-08-01T09:07:03.578Z,980.34
2022-08-01T09:08:03.410Z,980.33
2022-08-01T09:09:03.258Z,980.35
2022-08-01T09:10:03.219Z,980.33
2022-08-01T09:11:03.229Z,980.36
2022-08-01T09:12:03.480Z,980.34
2022-08-01T09:13:03.244Z,980.36
2022-08-01T09:14:03.426Z,980.37
2022-08-01T09:15:03.254Z,980.34
2022-08-01T09:16:03.153Z,980.31
2022-08-01T09:17:03.343Z,980.35
2022-08-01T09:18:03.405Z,980.33
2022-08-01T09:19:03.255Z,980.36
2022-08-01T09:20:03.086Z,980.34
2022-08-01T09:21:03.064Z,980.33
2022-08-01T09:22:03.297Z,980.37
2022-08-01T09:23:03.328Z,980.31
2022-08-01T09:24:03.032Z,980.33
2022-08-01T09:25:03.275Z,980.35
2022-08-01T09:26:03.079Z,980.38
2022-08-01T09:27:03.260Z,980.35
2022-08-01T09:28:03.089Z,980.38
2022-08-01T09:29:03.319Z,980.35
2022-08-01T09:30:03.079Z,980.39
2022-08-01T09:31:02.999Z,980.39
2022-08-01T09:32:03.063Z,980.36
2022-08-01T09:33:11.527Z,980.31
2022-08-01T09:34:03.076Z,980.34
2022-08-01T09:35:02.955Z,980.33
2022-08-01T09:36:02.894Z,980.28
2022-08-01T09:37:02.867Z,980.24
2022-08-01T09:38:02.844Z,980.28
2022-08-01T09:39:02.835Z,980.24
2022-08-01T09:40:02.834Z,980.23
2022-08-01T09:41:02.899Z,980.25
2022-08-01T09:42:02.800Z,980.24
2022-08-01T09:43:03.104Z,980.18
2022-08-01T09:44:02.789Z,980.24
2022-08-01T09:45:02.770Z,980.23
2022-08-01T09:46:03.108Z,980.22
2022-08-01T09:47:07.806Z,980.24
2022-08-01T09:48:02.791Z,980.19
2022-08-01T09:49:02.785Z,980.30
2022-08-01T09:50:06.287Z,980.24
2022-08-01T09:51:07.375Z,980.26
2022-08-01T09:52:02.860Z,980.16
2022-08-01T09:53:02.683Z,980.16
2022-08-01T09:54:02.775Z,980.13
2022-08-01T09:55:02.626Z,980.17
2022-08-01T09:56:02.775Z,980.26
2022-08-01T09:57:02.661Z,980.20
2022-08-01T09:58:02.850Z,980.18
2022-08-01T09:59:03.009Z,980.15
2022-08-01T10:00:02.980Z,980.14
2022-08-01T10:01:02.632Z,980.16
2022-08-01T10:02:02.780Z,980.17
2022-08-01T10:03:10.232Z,980.14
2022-08-01T10:04:02.653Z,980.12
2022-08-01T10:05:03.656Z,980.10
2022-08-01T10:06:02.487Z,980.08
2022-08-01T10:07:02.650Z,979.96
2022-08-01T10:08:02.534Z,980.07
2022-08-01T10:09:02.614Z,980.08
2022-08-01T10:10:02.453Z,980.10
2022-08-01T10:11:02.733Z,980.06
2022-08-01T10:12:02.471Z,980.12
2022-08-01T10:13:03.333Z,980.06
2022-08-01T10:14:02.448Z,980.09
2022-08-01T10:15:02.380Z,980.09
2022-08-01T10:16:02.468Z,980.04
2022-08-01T10:17:05.126Z,979.99
2022-08-01T10:18:02.504Z,980.06
2022-08-01T10:19:02.319Z,980.07
2022-08-01T10:20:02.460Z,980.05
2022-08-01T10:21:02.299Z,980.03
2022-08-01T10:22:02.291Z,979.99
2022-08-01T10:23:06.191Z,980.01
2022-08-01T10:24:03.249Z,980.02
2022-08-01T10:25:02.395Z,979.99
2022-08-01T10:26:02.455Z,979.95
2022-08-01T10:27:06.136Z,979.99
2022-08-01T10:28:02.497Z,979.96
2022-08-01T10:29:02.303Z,979.97
2022-08-01T10:30:08.624Z,979.96
2022-08-01T10:31:02.375Z,979.93
2022-08-01T10:32:02.460Z,979.95
2022-08-01T10:33:02.309Z,979.92
2022-08-01T10:34:02.154Z,979.90
2022-08-01T10:35:06.632Z,979.84
2022-08-01T10:36:02.108Z,979.93
2022-08-01T10:37:02.188Z,979.93
2022-08-01T10:38:02.153Z,979.86
2022-08-01T10:39:02.288Z,979.86
2022-08-01T10:40:28.904Z,979.86
2022-08-01T10:41:02.084Z,979.92
2022-08-01T10:42:02.034Z,979.84
2022-08-01T10:43:02.056Z,979.85
2022-08-01T10:44:02.086Z,979.84
2022-08-01T10:45:02.107Z,979.86
2022-08-01T10:46:01.984Z,979.91
2022-08-01T10:47:01.965Z,979.89
2022-08-01T10:48:02.097Z,979.90
2022-08-01T10:49:02.075Z,979.84
2022-08-01T10:50:01.939Z,979.87
2022-08-01T10:51:02.070Z,979.82
2022-08-01T10:52:01.910Z,979.85
2022-08-01T10:53:08.865Z,979.84
2022-08-01T10:54:01.910Z,979.82
2022-08-01T10:55:01.872Z,979.85
2022-08-01T10:56:02.896Z,979.82
2022-08-01T10:57:02.054Z,979.89
2022-08-01T10:58:01.844Z,979.95
2022-08-01T10:59:01.997Z,979.93
2022-08-01T11:00:01.991Z,979.90
2022-08-01T11:01:01.878Z,979.88
2022-08-01T11:02:01.915Z,979.91
2022-08-01T11:03:01.848Z,979.90
2022-08-01T11:04:02.126Z,979.85
2022-08-01T11:05:01.983Z,979.94
2022-08-01T11:06:01.807Z,979.84
2022-08-01T11:07:01.991Z,979.82
2022-08-01T11:08:01.809Z,979.79
2022-08-01T11:09:02.046Z,979.76
2022-08-01T11:10:01.890Z,979.75
2022-08-01T11:11:01.670Z,979.75
2022-08-01T11:12:01.799Z,979.79
2022-08-01T11:13:01.648Z,979.71
2022-08-01T11:14:01.809Z,979.74
2022-08-01T11:15:02.390Z,979.76
2022-08-01T11:16:06.073Z,979.72
2022-08-01T11:17:01.655Z,979.79
2022-08-01T11:18:01.903Z,979.73
2022-08-01T11:19:01.666Z,979.70
2022-08-01T11:20:01.566Z,979.76
2022-08-01T11:21:59.232Z,979.78
2022-08-01T11:22:04.789Z,979.73
2022-08-01T11:23:02.016Z,979.73
2022-08-01T11:24:01.518Z,979.75
2022-08-01T11:25:01.650Z,979.75
2022-08-01T11:26:05.227Z,979.71
2022-08-01T11:27:01.649Z,979.68
2022-08-01T11:28:01.489Z,979.71
2022-08-01T11:29:19.342Z,979.67
2022-08-01T11:30:01.488Z,979.63
2022-08-01T11:31:01.408Z,979.64
2022-08-01T11:32:01.577Z,979.55
2022-08-01T11:33:10.366Z,979.55
2022-08-01T11:34:03.535Z,979.51
2022-08-01T11:35:01.695Z,979.63
2022-08-01T11:36:01.500Z,979.59
2022-08-01T11:37:01.319Z,979.57
2022-08-01T11:38:01.545Z,979.52
2022-08-01T11:39:01.496Z,979.57
2022-08-01T11:40:01.267Z,979.55
2022-08-01T11:41:01.348Z,979.60
2022-08-01T11:42:01.279Z,979.57
2022-08-01T11:43:01.350Z,979.52
2022-08-01T11:44:01.309Z,979.56
2022-08-01T11:45:01.328Z,979.48
2022-08-01T11:46:01.209Z,979.46
2022-08-01T11:47:01.202Z,979.49
2022-08-01T11:48:01.179Z,979.45
2022-08-01T11:49:01.259Z,979.46
2022-08-01T11:50:01.243Z,979.47
2022-08-01T11:51:02.213Z,979.47
2022-08-01T11:52:01.195Z,979.50
2022-08-01T11:53:01.125Z,979.45
2022-08-01T11:54:01.094Z,979.50
2022-08-01T11:55:01.116Z,979.41
2022-08-01T11:56:01.134Z,979.45
2022-08-01T11:57:01.084Z,979.40
2022-08-01T11:58:01.197Z,979.37
2022-08-01T11:59:01.079Z,979.33
2022-08-01T12:00:04.282Z,979.27
2022-08-01T12:01:01.058Z,979.30
2022-08-01T12:02:01.129Z,979.23
2022-08-01T12:03:01.164Z,979.24
2022-08-01T12:04:00.993Z,979.22
2022-08-01T12:05:01.030Z,979.23
2022-08-01T12:06:01.169Z,979.26
2022-08-01T12:07:01.019Z,979.26
2022-08-01T12:08:00.957Z,979.29
2022-08-01T12:09:01.004Z,979.32
2022-08-01T12:10:00.934Z,979.23
2022-08-01T12:11:02.541Z,979.25
2022-08-01T12:12:00.884Z,979.22
2022-08-01T12:13:01.025Z,979.24
2022-08-01T12:14:00.868Z,979.25
2022-08-01T12:15:01.088Z,979.19
2022-08-01T12:16:00.865Z,979.21
2022-08-01T12:17:01.024Z,979.13
2022-08-01T12:18:00.846Z,979.16
2022-08-01T12:19:01.023Z,979.14
2022-08-01T12:20:00.850Z,979.16
2022-08-01T12:21:01.081Z,979.13
2022-08-01T12:22:00.840Z,979.23
2022-08-01T12:23:01.019Z,979.17
2022-08-01T12:24:00.849Z,979.20
2022-08-01T12:25:00.719Z,979.19
2022-08-01T12:26:00.853Z,979.19
2022-08-01T12:27:00.786Z,979.24
2022-08-01T12:28:00.854Z,979.25